Latest Weather Observations for Cessnock Airport

IDN60801

Issued at 9:05 am EST Thursday 31 July 2014 (issued every 30 minutes, with the page automatically refreshed every 10 minutes)

About weather observations | Map of weather stations | Latest weather observations for NSW | Other Formats
Station Details ID: 061260 Name: CESSNOCK AIRPORT AWS Lat: -32.79 Lon: 151.34 Height: 61.0 m
Data from the previous 72 hours. | See also: Recent months at Cessnock Airport
Date/Time
EST
Temp
°C
App
Temp
°C
Dew
Point
Rel
Hum
%
Delta-T
°C
Wind Press
QNH
hPa
Press
MSL
hPa
Rain
since 9 am
mm
Dir
 
Spd
km/h
Gust
km/h
Spd
kts
Gust
kts
31/09:00am 16.6 11.8 2.6 39 6.3 NW 17 30 9 16 1016.4 1016.5 0.0
31/08:30am 15.6 12.6 4.3 47 5.3 NNW 9 17 5 9 1016.7 - 0.0
31/08:00am 12.8 9.0 4.0 55 4.0 N 13 17 7 9 1016.7 1016.8 0.0
31/07:30am 12.2 8.3 3.4 55 3.9 N 13 22 7 12 1016.5 - 0.0
31/07:00am 10.5 6.7 4.0 64 2.9 N 13 17 7 9 1016.6 1016.7 0.0
31/06:30am 10.6 6.8 4.1 64 2.9 N 13 19 7 10 1016.5 - 0.0
31/06:00am 11.0 7.4 4.9 66 2.8 NNW 13 17 7 9 1016.2 1016.3 0.0
31/05:47am 8.1 5.6 8.1 100 0.0 N 11 17 6 9 1016.2 - 0.0
31/05:30am 2.9 0.0 2.6 98 0.1 NNE 7 9 4 5 1016.2 - 0.0
31/05:00am 3.2 1.7 3.1 99 0.0 CALM 0 0 0 0 1016.1 1016.2 0.0
31/04:30am 3.0 0.3 2.6 97 0.2 SSE 6 7 3 4 1016.0 - 0.0
31/04:00am 3.8 1.2 3.4 97 0.2 S 6 7 3 4 1016.1 1016.2 0.0
31/03:30am 4.0 1.4 3.4 96 0.2 E 6 9 3 5 1016.2 - 0.0
31/03:00am 4.5 2.4 3.9 96 0.3 SSE 4 9 2 5 1016.4 1016.5 0.0
31/02:30am 5.2 3.2 4.6 96 0.3 SE 4 7 2 4 1016.5 - 0.0
31/02:00am 4.6 1.5 3.4 92 0.5 E 9 11 5 6 1016.6 1016.7 0.0
31/01:30am 5.5 3.1 4.5 93 0.4 E 6 6 3 3 1016.7 - 0.0
31/01:00am 5.3 3.0 4.6 95 0.3 E 6 7 3 4 1017.0 1017.1 0.0
31/12:30am 5.6 3.1 3.8 88 0.8 N 6 9 3 5 1017.3 - 0.0
31/12:00am 5.9 4.2 4.1 88 0.8 N 2 7 1 4 1017.6 1017.7 0.0
 
Date/Time
EST
Temp
°C
App
Temp
°C
Dew
Point
Rel
Hum
%
Delta-T
°C
Wind Press
QNH
hPa
Press
MSL
hPa
Rain
since 9 am
mm
Dir
 
Spd
km/h
Gust
km/h
Spd
kts
Gust
kts
30/11:30pm 6.3 3.8 4.8 90 0.7 N 7 11 4 6 1017.9 - 0.0
30/11:00pm 6.8 4.4 4.1 83 1.2 N 6 9 3 5 1018.1 1018.2 0.0
30/10:30pm 7.3 4.9 4.1 80 1.4 N 6 9 3 5 1018.2 - 0.0
30/10:00pm 7.5 5.0 3.7 77 1.6 W 6 11 3 6 1018.3 1018.4 0.0
30/09:30pm 9.3 8.1 4.7 73 2.1 CALM 0 7 0 4 1018.4 - 0.0
30/09:00pm 11.3 10.1 4.7 64 3.0 CALM 0 0 0 0 1018.3 1018.4 0.0
30/08:30pm 14.1 11.6 4.7 53 4.4 NNW 7 11 4 6 1018.3 - 0.0
30/08:00pm 15.8 12.7 5.4 50 5.0 NW 11 15 6 8 1018.0 1018.1 0.0
30/07:30pm 16.4 13.7 5.4 48 5.3 WNW 9 15 5 8 1017.7 - 0.0
30/07:00pm 16.9 14.1 5.2 46 5.6 WNW 9 13 5 7 1017.3 1017.4 0.0
30/06:30pm 17.7 14.4 4.6 42 6.2 NW 11 17 6 9 1016.7 - 0.0
30/06:00pm 18.1 14.9 5.0 42 6.3 NW 11 17 6 9 1016.4 1016.5 0.0
30/05:30pm 18.8 15.8 4.2 38 7.0 WNW 9 15 5 8 1016.2 - 0.0
30/05:00pm 20.0 15.6 4.5 36 7.5 NW 17 30 9 16 1015.7 1015.8 0.0
30/04:30pm 21.0 15.9 4.1 33 8.2 NW 20 33 11 18 1015.7 - 0.0
30/04:00pm 21.5 16.4 4.1 32 8.4 NW 20 35 11 19 1015.5 1015.6 0.0
30/03:30pm 22.0 16.6 4.6 32 8.6 NW 22 37 12 20 1015.7 - 0.0
30/03:00pm 21.9 16.5 4.5 32 8.5 NW 22 37 12 20 1016.0 1016.1 0.0
30/02:30pm 21.8 16.0 4.4 32 8.5 NW 24 35 13 19 1015.9 - 0.0
30/02:00pm 21.8 16.8 4.4 32 8.5 NW 20 41 11 22 1015.7 1015.8 0.0
30/01:30pm 21.3 15.4 4.0 32 8.4 NW 24 37 13 20 1016.0 - 0.0
30/01:00pm 21.3 15.9 4.4 33 8.2 NW 22 35 12 19 1016.6 1016.7 0.0
30/12:30pm 20.7 14.4 3.9 33 8.1 NW 26 43 14 23 1016.8 - 0.0
30/12:00pm 19.9 13.1 3.2 33 7.9 NW 28 41 15 22 1017.5 1017.6 0.0
30/11:30am 19.2 13.5 3.0 34 7.6 NNW 22 37 12 20 1018.3 - 0.0
30/11:00am 18.6 12.7 2.0 33 7.5 NNW 22 32 12 17 1019.1 1019.2 0.0
30/10:30am 18.1 12.6 2.0 34 7.3 NNW 20 30 11 16 1019.7 - 0.0
30/10:00am 17.8 12.6 2.5 36 7.0 NW 19 28 10 15 1019.8 1019.9 0.0
30/09:30am 16.1 10.8 3.2 42 5.9 NW 20 32 11 17 1019.7 - 0.0
30/09:00am 14.9 9.4 1.8 41 5.7 NNW 20 32 11 17 1019.7 1019.8 0.0
30/08:30am 14.4 9.5 2.0 43 5.5 NNW 17 28 9 15 1019.7 - 0.0
30/08:00am 13.9 8.3 1.5 43 5.4 NNW 20 28 11 15 1019.0 1019.1 0.0
30/07:30am 13.0 8.1 2.0 47 4.8 NNW 17 26 9 14 1019.1 - 0.0
30/07:00am 11.9 7.0 1.8 50 4.3 NNW 17 24 9 13 1019.0 1019.1 0.0
30/06:30am 12.4 7.5 1.7 48 4.6 NW 17 22 9 12 1018.5 - 0.0
30/06:00am 13.2 8.2 1.5 45 5.0 NW 17 28 9 15 1018.4 1018.5 0.0
30/05:30am 12.9 7.6 1.6 46 4.9 NW 19 26 10 14 1018.0 - 0.0
30/05:00am 13.5 8.5 1.2 43 5.3 NW 17 26 9 14 1017.7 1017.8 0.0
30/04:30am 13.8 8.8 1.1 42 5.4 NW 17 26 9 14 1017.5 - 0.0
30/04:00am 14.0 9.0 1.6 43 5.4 NW 17 24 9 13 1017.5 1017.6 0.0
30/03:30am 14.1 9.1 1.4 42 5.5 NW 17 26 9 14 1017.5 - 0.0
30/03:00am 13.3 8.8 1.9 46 4.9 NW 15 20 8 11 1017.6 1017.7 0.0
30/02:30am 14.1 9.5 1.4 42 5.5 NW 15 20 8 11 1017.7 - 0.0
30/02:00am 14.6 9.6 1.5 41 5.7 NW 17 32 9 17 1017.6 1017.7 0.0
30/01:30am 14.2 9.3 1.8 43 5.4 NW 17 28 9 15 1017.9 - 0.0
30/01:00am 14.0 9.0 1.6 43 5.4 NW 17 26 9 14 1017.7 1017.8 0.0
30/12:30am 14.0 8.7 2.0 44 5.3 NW 19 28 10 15 1017.8 - 0.0
30/12:00am 14.2 9.3 2.1 44 5.3 NW 17 24 9 13 1017.8 1017.9 0.0
 
Date/Time
EST
Temp
°C
App
Temp
°C
Dew
Point
Rel
Hum
%
Delta-T
°C
Wind Press
QNH
hPa
Press
MSL
hPa
Rain
since 9 am
mm
Dir
 
Spd
km/h
Gust
km/h
Spd
kts
Gust
kts
29/11:30pm 14.5 9.0 2.1 43 5.5 NW 20 28 11 15 1017.9 - 0.0
29/11:00pm 14.2 9.1 2.8 46 5.1 NW 19 26 10 14 1018.0 1018.1 0.0
29/10:30pm 14.4 9.1 2.9 46 5.2 NW 20 32 11 17 1018.1 - 0.0
29/10:00pm 14.2 9.5 3.1 47 5.0 NW 17 24 9 13 1018.0 1018.1 0.0
29/09:30pm 13.8 9.6 3.6 50 4.6 NW 15 20 8 11 1018.0 - 0.0
29/09:00pm 13.9 9.8 4.2 52 4.4 NW 15 24 8 13 1018.0 1018.1 0.0
29/08:30pm 14.0 10.0 4.9 54 4.2 NW 15 24 8 13 1017.9 - 0.0
29/08:00pm 14.2 11.0 5.0 54 4.3 NW 11 15 6 8 1018.0 1018.1 0.0
29/07:30pm 14.4 10.8 5.2 54 4.3 NW 13 17 7 9 1017.9 - 0.0
29/07:00pm 14.5 11.3 5.3 54 4.3 NW 11 15 6 8 1017.9 1018.0 0.0
29/06:30pm 15.0 12.2 5.2 52 4.6 NW 9 13 5 7 1017.7 - 0.0
29/06:00pm 15.8 12.9 4.8 48 5.2 NW 9 11 5 6 1017.2 1017.3 0.0
29/05:30pm 16.7 13.8 4.4 44 5.8 NNW 9 11 5 6 1016.8 - 0.0
29/05:00pm 18.0 13.9 4.2 40 6.5 NNW 15 22 8 12 1016.2 1016.3 0.0
29/04:30pm 19.2 14.9 3.4 35 7.4 NNW 15 26 8 14 1015.8 - 0.0
29/04:00pm 20.4 14.9 1.8 29 8.6 NNW 20 39 11 21 1015.4 1015.5 0.0
29/03:30pm 20.7 14.5 2.0 29 8.7 NW 24 39 13 21 1015.4 - 0.0
29/03:00pm 20.6 14.0 2.0 29 8.6 NW 26 39 14 21 1015.7 1015.8 0.0
29/02:30pm 20.5 14.3 2.3 30 8.5 WNW 24 39 13 21 1016.2 - 0.0
29/02:00pm 20.1 14.5 1.5 29 8.5 NNW 20 33 11 18 1016.1 1016.2 0.0
29/01:30pm 19.9 13.0 2.7 32 8.0 NW 28 43 15 23 1016.1 - 0.0
29/01:00pm 19.1 13.0 2.9 34 7.5 NNW 24 37 13 20 1016.5 1016.6 0.0
29/12:30pm 18.7 12.0 3.7 37 7.1 NNW 28 44 15 24 1016.8 - 0.0
29/12:00pm 18.3 12.7 3.4 37 7.0 NNW 22 35 12 19 1018.0 1018.1 0.0
29/11:30am 16.9 11.3 3.6 41 6.2 NNW 22 35 12 19 1019.1 - 0.0
29/11:00am 17.2 11.2 3.5 40 6.3 NW 24 41 13 22 1019.8 1019.9 0.0
29/10:30am 16.6 10.6 3.6 42 6.0 NW 24 35 13 19 1019.9 - 0.0
29/10:15am 16.5 9.6 2.5 39 6.3 NNW 28 46 15 25 1020.0 - 0.0
29/10:00am 16.7 10.4 3.7 42 6.0 NW 26 46 14 25 1020.0 1020.1 0.0
29/09:54am 16.2 9.4 3.3 42 5.9 NW 28 46 15 25 1020.0 - 0.0
29/09:30am 15.1 10.0 4.2 48 5.1 NW 20 33 11 18 1020.1 - 0.0
29/09:00am 14.1 8.7 4.4 52 4.5 NW 22 35 12 19 1019.9 1020.0 0.0
29/08:30am 13.3 8.3 3.7 52 4.3 NW 19 35 10 19 1020.0 - 0.0
29/08:00am 12.3 7.7 3.8 56 3.8 NNW 17 24 9 13 1020.0 1020.1 0.0
29/07:30am 11.6 7.8 4.1 60 3.4 NW 13 20 7 11 1019.9 - 0.0
29/07:00am 10.6 6.0 3.9 63 3.0 NNW 17 24 9 13 1019.7 1019.8 0.0
29/06:30am 9.2 4.2 3.8 69 2.4 N 19 22 10 12 1019.6 - 0.0
29/06:00am 9.3 5.2 4.1 70 2.3 NNE 15 20 8 11 1019.4 1019.5 0.0
29/05:30am 9.6 6.1 3.6 66 2.6 N 11 17 6 9 1018.9 - 0.0
29/05:00am 11.5 8.0 3.3 57 3.6 N 11 19 6 10 1018.8 1018.9 0.0
29/04:30am 12.5 7.9 3.5 54 4.0 NW 17 26 9 14 1018.8 - 0.0
29/04:00am 12.1 7.1 3.6 56 3.8 NW 19 30 10 16 1018.8 1018.9 0.0
29/03:30am 11.9 6.8 3.9 58 3.6 NW 20 30 11 16 1018.7 - 0.0
29/03:00am 11.7 5.8 4.0 59 3.4 WNW 24 33 13 18 1018.4 1018.5 0.0
29/02:30am 11.6 6.2 4.3 61 3.3 WNW 22 35 12 19 1018.7 - 0.0
29/02:00am 11.1 6.3 4.6 64 2.9 NW 19 30 10 16 1018.6 1018.7 0.0
29/01:30am 10.2 5.4 4.6 68 2.5 NW 19 26 10 14 1018.9 - 0.0
29/01:00am 9.5 6.2 4.3 70 2.3 NW 11 17 6 9 1019.1 1019.2 0.0
29/12:30am 9.5 5.8 4.7 72 2.1 NW 13 17 7 9 1019.4 - 0.0
29/12:00am 7.4 4.9 6.7 95 0.3 NNW 9 11 5 6 1019.7 1019.8 0.0
 
Date/Time
EST
Temp
°C
App
Temp
°C
Dew
Point
Rel
Hum
%
Delta-T
°C
Wind Press
QNH
hPa
Press
MSL
hPa
Rain
since 9 am
mm
Dir
 
Spd
km/h
Gust
km/h
Spd
kts
Gust
kts
28/11:30pm 5.0 2.3 2.4 83 1.1 NNW 6 7 3 4 1020.0 - 0.0
28/11:00pm 4.9 2.9 2.1 82 1.1 NW 2 6 1 3 1020.0 1020.1 0.0
28/10:30pm 6.5 3.7 3.3 80 1.3 NW 7 11 4 6 1020.0 - 0.0
28/10:00pm 7.5 4.9 3.4 75 1.7 W 6 9 3 5 1020.3 1020.4 0.0
28/09:30pm 9.6 6.7 4.4 70 2.3 N 9 11 5 6 1020.2 - 0.0
28/09:00pm 12.1 8.7 4.1 58 3.6 WNW 11 15 6 8 1020.1 1020.2 0.0
28/08:30pm 12.9 9.9 4.3 56 3.9 NW 9 15 5 8 1019.9 - 0.0
28/08:00pm 13.8 9.3 4.1 52 4.4 NW 17 28 9 15 1020.0 1020.1 0.0
28/07:30pm 14.0 10.3 4.3 52 4.5 NW 13 19 7 10 1019.7 - 0.0
28/07:00pm 14.8 10.7 4.5 50 4.8 NW 15 20 8 11 1019.4 1019.5 0.0
28/06:30pm 14.9 11.6 4.3 49 4.9 NNW 11 19 6 10 1019.1 - 0.0
28/06:00pm 15.9 12.1 4.0 45 5.5 NW 13 19 7 10 1018.8 1018.9 0.0
28/05:30pm 16.7 12.6 4.1 43 5.9 NNW 15 20 8 11 1018.5 - 0.0
28/05:00pm 17.1 13.4 4.4 43 6.0 NNW 13 19 7 10 1018.4 1018.5 0.0
28/04:30pm 17.6 14.8 5.2 44 6.0 NW 9 13 5 7 1018.3 - 0.0
28/04:00pm 17.3 12.9 4.6 43 6.0 NW 17 28 9 15 1018.3 1018.4 0.0
28/03:30pm 18.2 13.2 4.4 40 6.6 NNW 20 32 11 17 1018.2 - 0.0
28/03:00pm 18.5 14.9 5.0 41 6.5 NW 13 24 7 13 1018.2 1018.3 0.0
28/02:30pm 18.6 14.4 5.8 43 6.3 NW 17 28 9 15 1018.4 - 0.0
28/02:00pm 18.3 13.5 4.8 41 6.5 NNW 19 28 10 15 1018.7 1018.8 0.0
28/01:30pm 18.0 13.3 5.2 43 6.2 NNW 19 28 10 15 1019.0 - 0.0
28/01:00pm 17.8 13.3 4.4 41 6.4 NNW 17 28 9 15 1019.3 1019.4 0.0
28/12:30pm 17.4 12.7 5.0 44 6.0 NNW 19 28 10 15 1019.8 - 0.0
28/12:00pm 17.2 12.6 5.5 46 5.6 NW 19 26 10 14 1020.3 1020.4 0.0
28/11:30am 16.3 11.7 5.6 49 5.2 NNW 19 26 10 14 1020.6 - 0.0
28/11:00am 15.1 10.4 5.0 51 4.7 NNW 19 30 10 16 1021.3 1021.4 0.0
28/10:30am 14.4 9.6 5.5 55 4.2 NNW 20 28 11 15 1021.8 - 0.0
28/10:00am 14.2 10.1 6.3 59 3.8 NW 17 28 9 15 1022.3 1022.4 0.0
28/09:30am 12.2 8.1 6.0 66 2.9 NW 17 30 9 16 1022.1 - 0.0

Other Formats:

Comma delimited format used in spreadsheet applications
http://www.bom.gov.au/fwo/IDN60801/IDN60801.95771.axf

JavaScript Object Notation format (JSON) in row-major order
http://www.bom.gov.au/fwo/IDN60801/IDN60801.95771.json